sensor_id;sensor_type;location;lat;lon;timestamp;P1;durP1;ratioP1;P2;durP2;ratioP2
3101;SDS011;1561;42.666;23.392;2022-10-20T00:00:54;28.20;;;25.17;;
3101;SDS011;1561;42.666;23.392;2022-10-20T00:03:23;29.27;;;26.07;;
3101;SDS011;1561;42.666;23.392;2022-10-20T00:05:54;29.97;;;25.97;;
3101;SDS011;1561;42.666;23.392;2022-10-20T00:08:30;29.87;;;25.93;;
3101;SDS011;1561;42.666;23.392;2022-10-20T00:10:58;31.03;;;27.60;;
3101;SDS011;1561;42.666;23.392;2022-10-20T00:13:26;35.00;;;26.30;;
3101;SDS011;1561;42.666;23.392;2022-10-20T00:15:54;35.03;;;28.07;;
3101;SDS011;1561;42.666;23.392;2022-10-20T00:18:21;29.37;;;26.17;;
3101;SDS011;1561;42.666;23.392;2022-10-20T00:20:50;31.27;;;25.77;;
3101;SDS011;1561;42.666;23.392;2022-10-20T00:23:20;29.03;;;25.37;;
3101;SDS011;1561;42.666;23.392;2022-10-20T00:25:47;28.83;;;24.20;;
3101;SDS011;1561;42.666;23.392;2022-10-20T00:28:14;29.47;;;25.17;;
3101;SDS011;1561;42.666;23.392;2022-10-20T00:30:44;27.40;;;24.30;;
3101;SDS011;1561;42.666;23.392;2022-10-20T00:33:11;28.10;;;24.40;;
3101;SDS011;1561;42.666;23.392;2022-10-20T00:35:38;24.97;;;21.97;;
3101;SDS011;1561;42.666;23.392;2022-10-20T00:38:09;35.50;;;24.33;;
3101;SDS011;1561;42.666;23.392;2022-10-20T00:40:36;25.57;;;22.80;;
3101;SDS011;1561;42.666;23.392;2022-10-20T00:43:08;24.77;;;22.07;;
3101;SDS011;1561;42.666;23.392;2022-10-20T00:45:35;29.13;;;21.13;;
3101;SDS011;1561;42.666;23.392;2022-10-20T00:48:05;23.17;;;20.33;;
3101;SDS011;1561;42.666;23.392;2022-10-20T00:50:40;24.13;;;20.00;;
3101;SDS011;1561;42.666;23.392;2022-10-20T00:53:09;22.37;;;19.97;;
3101;SDS011;1561;42.666;23.392;2022-10-20T00:55:37;22.10;;;19.80;;
3101;SDS011;1561;42.666;23.392;2022-10-20T00:58:07;23.40;;;19.60;;
3101;SDS011;1561;42.666;23.392;2022-10-20T01:00:36;23.57;;;19.73;;
3101;SDS011;1561;42.666;23.392;2022-10-20T01:03:23;22.17;;;19.80;;
3101;SDS011;1561;42.666;23.392;2022-10-20T01:05:55;19.03;;;17.00;;
3101;SDS011;1561;42.666;23.392;2022-10-20T01:08:22;20.37;;;16.77;;
3101;SDS011;1561;42.666;23.392;2022-10-20T01:10:50;19.40;;;17.17;;
3101;SDS011;1561;42.666;23.392;2022-10-20T01:13:26;21.67;;;18.33;;
3101;SDS011;1561;42.666;23.392;2022-10-20T01:15:58;22.43;;;17.40;;
3101;SDS011;1561;42.666;23.392;2022-10-20T01:18:37;19.03;;;17.03;;
3101;SDS011;1561;42.666;23.392;2022-10-20T01:24:19;17.93;;;16.03;;
3101;SDS011;1561;42.666;23.392;2022-10-20T01:29:56;19.40;;;15.57;;
3101;SDS011;1561;42.666;23.392;2022-10-20T01:32:32;17.00;;;14.80;;
3101;SDS011;1561;42.666;23.392;2022-10-20T01:35:10;16.83;;;15.13;;
3101;SDS011;1561;42.666;23.392;2022-10-20T01:37:46;17.37;;;15.53;;
3101;SDS011;1561;42.666;23.392;2022-10-20T01:40:20;16.93;;;15.00;;
3101;SDS011;1561;42.666;23.392;2022-10-20T01:42:55;18.33;;;15.53;;
3101;SDS011;1561;42.666;23.392;2022-10-20T01:45:26;17.83;;;14.53;;
3101;SDS011;1561;42.666;23.392;2022-10-20T01:47:57;16.43;;;14.53;;
3101;SDS011;1561;42.666;23.392;2022-10-20T01:50:26;17.97;;;14.50;;
3101;SDS011;1561;42.666;23.392;2022-10-20T01:52:55;16.33;;;14.60;;
3101;SDS011;1561;42.666;23.392;2022-10-20T01:55:22;17.43;;;14.90;;
3101;SDS011;1561;42.666;23.392;2022-10-20T01:57:57;15.20;;;13.33;;
3101;SDS011;1561;42.666;23.392;2022-10-20T02:00:35;19.13;;;14.63;;
3101;SDS011;1561;42.666;23.392;2022-10-20T02:03:09;17.77;;;15.27;;
3101;SDS011;1561;42.666;23.392;2022-10-20T02:05:52;20.87;;;16.30;;
3101;SDS011;1561;42.666;23.392;2022-10-20T02:08:29;16.17;;;13.50;;
3101;SDS011;1561;42.666;23.392;2022-10-20T02:11:01;21.13;;;15.53;;
3101;SDS011;1561;42.666;23.392;2022-10-20T02:13:33;20.40;;;16.03;;
3101;SDS011;1561;42.666;23.392;2022-10-20T02:16:06;19.20;;;16.20;;
3101;SDS011;1561;42.666;23.392;2022-10-20T02:18:39;21.50;;;15.23;;
3101;SDS011;1561;42.666;23.392;2022-10-20T02:21:12;18.87;;;15.90;;
3101;SDS011;1561;42.666;23.392;2022-10-20T02:23:40;18.47;;;16.10;;
3101;SDS011;1561;42.666;23.392;2022-10-20T02:26:12;19.10;;;16.50;;
3101;SDS011;1561;42.666;23.392;2022-10-20T02:28:43;21.00;;;16.97;;
3101;SDS011;1561;42.666;23.392;2022-10-20T02:31:13;17.97;;;16.07;;
3101;SDS011;1561;42.666;23.392;2022-10-20T02:33:42;18.27;;;16.37;;
3101;SDS011;1561;42.666;23.392;2022-10-20T02:36:11;18.70;;;16.70;;
3101;SDS011;1561;42.666;23.392;2022-10-20T02:38:40;18.67;;;16.37;;
3101;SDS011;1561;42.666;23.392;2022-10-20T02:41:07;18.77;;;16.77;;
3101;SDS011;1561;42.666;23.392;2022-10-20T02:43:35;22.40;;;17.17;;
3101;SDS011;1561;42.666;23.392;2022-10-20T02:46:04;19.47;;;16.50;;
3101;SDS011;1561;42.666;23.392;2022-10-20T02:48:31;19.03;;;16.67;;
3101;SDS011;1561;42.666;23.392;2022-10-20T02:50:58;19.13;;;15.60;;
3101;SDS011;1561;42.666;23.392;2022-10-20T02:53:27;19.30;;;15.80;;
3101;SDS011;1561;42.666;23.392;2022-10-20T02:55:54;24.77;;;16.43;;
3101;SDS011;1561;42.666;23.392;2022-10-20T02:58:22;17.63;;;15.73;;
3101;SDS011;1561;42.666;23.392;2022-10-20T03:00:52;20.47;;;15.83;;
3101;SDS011;1561;42.666;23.392;2022-10-20T03:03:20;19.97;;;15.30;;
3101;SDS011;1561;42.666;23.392;2022-10-20T03:05:49;18.50;;;15.73;;
3101;SDS011;1561;42.666;23.392;2022-10-20T03:08:16;18.30;;;16.17;;
3101;SDS011;1561;42.666;23.392;2022-10-20T03:10:43;20.53;;;15.70;;
3101;SDS011;1561;42.666;23.392;2022-10-20T03:13:12;19.17;;;15.80;;
3101;SDS011;1561;42.666;23.392;2022-10-20T03:15:40;20.00;;;15.87;;
3101;SDS011;1561;42.666;23.392;2022-10-20T03:18:10;20.03;;;15.53;;
3101;SDS011;1561;42.666;23.392;2022-10-20T03:20:39;18.17;;;15.93;;
3101;SDS011;1561;42.666;23.392;2022-10-20T03:23:06;19.87;;;15.73;;
3101;SDS011;1561;42.666;23.392;2022-10-20T03:25:33;23.20;;;15.37;;
3101;SDS011;1561;42.666;23.392;2022-10-20T03:28:00;19.97;;;15.70;;
3101;SDS011;1561;42.666;23.392;2022-10-20T03:30:26;20.27;;;15.70;;
3101;SDS011;1561;42.666;23.392;2022-10-20T03:32:54;19.10;;;15.30;;
3101;SDS011;1561;42.666;23.392;2022-10-20T03:35:21;19.30;;;16.53;;
3101;SDS011;1561;42.666;23.392;2022-10-20T03:37:49;20.57;;;16.57;;
3101;SDS011;1561;42.666;23.392;2022-10-20T03:40:16;21.70;;;17.40;;
3101;SDS011;1561;42.666;23.392;2022-10-20T03:42:43;19.37;;;16.10;;
3101;SDS011;1561;42.666;23.392;2022-10-20T03:45:10;20.30;;;15.77;;
3101;SDS011;1561;42.666;23.392;2022-10-20T03:47:37;21.03;;;16.30;;
3101;SDS011;1561;42.666;23.392;2022-10-20T03:50:04;18.40;;;15.30;;
3101;SDS011;1561;42.666;23.392;2022-10-20T03:52:34;19.73;;;15.77;;
3101;SDS011;1561;42.666;23.392;2022-10-20T03:55:02;19.90;;;14.77;;
3101;SDS011;1561;42.666;23.392;2022-10-20T03:57:30;20.07;;;16.03;;
3101;SDS011;1561;42.666;23.392;2022-10-20T03:59:57;19.83;;;15.37;;
3101;SDS011;1561;42.666;23.392;2022-10-20T04:02:30;20.00;;;16.83;;
3101;SDS011;1561;42.666;23.392;2022-10-20T04:04:59;18.23;;;15.60;;
3101;SDS011;1561;42.666;23.392;2022-10-20T04:07:26;20.13;;;16.33;;
3101;SDS011;1561;42.666;23.392;2022-10-20T04:09:53;19.67;;;15.83;;
3101;SDS011;1561;42.666;23.392;2022-10-20T04:12:21;21.37;;;15.97;;
3101;SDS011;1561;42.666;23.392;2022-10-20T04:14:50;20.70;;;15.80;;
3101;SDS011;1561;42.666;23.392;2022-10-20T04:17:35;22.73;;;15.17;;
3101;SDS011;1561;42.666;23.392;2022-10-20T04:20:03;21.53;;;16.33;;
3101;SDS011;1561;42.666;23.392;2022-10-20T04:22:31;20.63;;;17.27;;
3101;SDS011;1561;42.666;23.392;2022-10-20T04:25:02;19.90;;;16.13;;
3101;SDS011;1561;42.666;23.392;2022-10-20T04:27:31;19.37;;;15.53;;
3101;SDS011;1561;42.666;23.392;2022-10-20T04:30:00;22.00;;;16.70;;
3101;SDS011;1561;42.666;23.392;2022-10-20T04:32:28;20.17;;;17.13;;
3101;SDS011;1561;42.666;23.392;2022-10-20T04:34:55;18.73;;;15.43;;
3101;SDS011;1561;42.666;23.392;2022-10-20T04:37:23;18.63;;;15.80;;
3101;SDS011;1561;42.666;23.392;2022-10-20T04:39:50;21.50;;;17.93;;
3101;SDS011;1561;42.666;23.392;2022-10-20T04:42:17;20.73;;;15.93;;
3101;SDS011;1561;42.666;23.392;2022-10-20T04:44:45;21.07;;;17.20;;
3101;SDS011;1561;42.666;23.392;2022-10-20T04:47:12;21.77;;;17.30;;
3101;SDS011;1561;42.666;23.392;2022-10-20T04:49:40;27.53;;;18.57;;
3101;SDS011;1561;42.666;23.392;2022-10-20T04:52:08;22.73;;;17.80;;
3101;SDS011;1561;42.666;23.392;2022-10-20T04:54:36;25.50;;;18.33;;
3101;SDS011;1561;42.666;23.392;2022-10-20T04:57:04;20.20;;;16.30;;
3101;SDS011;1561;42.666;23.392;2022-10-20T04:59:30;19.23;;;16.30;;
3101;SDS011;1561;42.666;23.392;2022-10-20T05:02:01;20.87;;;16.40;;
3101;SDS011;1561;42.666;23.392;2022-10-20T05:04:29;19.23;;;16.30;;
3101;SDS011;1561;42.666;23.392;2022-10-20T05:06:57;20.53;;;16.20;;
3101;SDS011;1561;42.666;23.392;2022-10-20T05:09:24;21.60;;;16.50;;
3101;SDS011;1561;42.666;23.392;2022-10-20T05:11:52;18.30;;;15.40;;
3101;SDS011;1561;42.666;23.392;2022-10-20T05:14:19;22.73;;;16.83;;
3101;SDS011;1561;42.666;23.392;2022-10-20T05:16:48;21.63;;;15.57;;
3101;SDS011;1561;42.666;23.392;2022-10-20T05:19:16;21.10;;;15.30;;
3101;SDS011;1561;42.666;23.392;2022-10-20T05:21:43;17.63;;;14.80;;
3101;SDS011;1561;42.666;23.392;2022-10-20T05:24:11;16.13;;;13.93;;
3101;SDS011;1561;42.666;23.392;2022-10-20T05:26:40;16.27;;;14.27;;
3101;SDS011;1561;42.666;23.392;2022-10-20T05:29:08;20.07;;;14.30;;
3101;SDS011;1561;42.666;23.392;2022-10-20T05:31:37;23.00;;;15.97;;
3101;SDS011;1561;42.666;23.392;2022-10-20T05:34:05;18.13;;;14.23;;
3101;SDS011;1561;42.666;23.392;2022-10-20T05:36:33;15.67;;;13.97;;
3101;SDS011;1561;42.666;23.392;2022-10-20T05:39:02;16.70;;;14.60;;
3101;SDS011;1561;42.666;23.392;2022-10-20T05:41:30;15.47;;;13.63;;
3101;SDS011;1561;42.666;23.392;2022-10-20T05:43:59;15.10;;;13.67;;
3101;SDS011;1561;42.666;23.392;2022-10-20T05:49:14;16.53;;;14.13;;
3101;SDS011;1561;42.666;23.392;2022-10-20T05:51:43;18.10;;;14.40;;
3101;SDS011;1561;42.666;23.392;2022-10-20T05:54:11;20.47;;;14.03;;
3101;SDS011;1561;42.666;23.392;2022-10-20T05:56:39;16.03;;;14.03;;
3101;SDS011;1561;42.666;23.392;2022-10-20T05:59:07;16.40;;;14.60;;
3101;SDS011;1561;42.666;23.392;2022-10-20T06:01:35;15.47;;;13.97;;
3101;SDS011;1561;42.666;23.392;2022-10-20T06:04:12;15.30;;;13.67;;
3101;SDS011;1561;42.666;23.392;2022-10-20T06:06:40;18.20;;;14.87;;
3101;SDS011;1561;42.666;23.392;2022-10-20T06:09:09;15.30;;;13.20;;
3101;SDS011;1561;42.666;23.392;2022-10-20T06:11:37;19.70;;;15.40;;
3101;SDS011;1561;42.666;23.392;2022-10-20T06:14:04;16.60;;;14.75;;
3101;SDS011;1561;42.666;23.392;2022-10-20T06:16:31;17.00;;;15.20;;
3101;SDS011;1561;42.666;23.392;2022-10-20T06:18:59;16.33;;;14.25;;
3101;SDS011;1561;42.666;23.392;2022-10-20T06:21:27;15.60;;;14.05;;
3101;SDS011;1561;42.666;23.392;2022-10-20T06:23:57;16.30;;;14.65;;
3101;SDS011;1561;42.666;23.392;2022-10-20T06:26:26;17.13;;;15.55;;
3101;SDS011;1561;42.666;23.392;2022-10-20T06:28:57;17.63;;;15.77;;
3101;SDS011;1561;42.666;23.392;2022-10-20T06:31:27;17.58;;;15.82;;
3101;SDS011;1561;42.666;23.392;2022-10-20T06:33:55;17.90;;;16.10;;
3101;SDS011;1561;42.666;23.392;2022-10-20T06:36:23;16.30;;;14.65;;
3101;SDS011;1561;42.666;23.392;2022-10-20T06:38:56;18.75;;;16.83;;
3101;SDS011;1561;42.666;23.392;2022-10-20T06:41:29;18.60;;;16.60;;
3101;SDS011;1561;42.666;23.392;2022-10-20T06:44:07;19.70;;;16.48;;
3101;SDS011;1561;42.666;23.392;2022-10-20T06:46:34;19.13;;;17.23;;
3101;SDS011;1561;42.666;23.392;2022-10-20T06:49:06;19.67;;;17.67;;
3101;SDS011;1561;42.666;23.392;2022-10-20T06:51:34;18.02;;;16.10;;
3101;SDS011;1561;42.666;23.392;2022-10-20T06:54:03;19.27;;;17.38;;
3101;SDS011;1561;42.666;23.392;2022-10-20T06:56:32;17.05;;;15.32;;
3101;SDS011;1561;42.666;23.392;2022-10-20T06:59:09;20.92;;;18.63;;
3101;SDS011;1561;42.666;23.392;2022-10-20T07:01:39;19.02;;;17.08;;
3101;SDS011;1561;42.666;23.392;2022-10-20T07:04:09;18.30;;;16.48;;
3101;SDS011;1561;42.666;23.392;2022-10-20T07:06:43;20.92;;;16.13;;
3101;SDS011;1561;42.666;23.392;2022-10-20T07:09:14;45.33;;;19.58;;
3101;SDS011;1561;42.666;23.392;2022-10-20T07:11:42;18.27;;;16.55;;
3101;SDS011;1561;42.666;23.392;2022-10-20T07:14:10;17.98;;;16.02;;
3101;SDS011;1561;42.666;23.392;2022-10-20T07:16:38;17.80;;;15.95;;
3101;SDS011;1561;42.666;23.392;2022-10-20T07:19:05;16.83;;;15.10;;
3101;SDS011;1561;42.666;23.392;2022-10-20T07:21:32;17.65;;;15.80;;
3101;SDS011;1561;42.666;23.392;2022-10-20T07:24:00;16.27;;;14.68;;
3101;SDS011;1561;42.666;23.392;2022-10-20T07:26:32;17.27;;;15.52;;
3101;SDS011;1561;42.666;23.392;2022-10-20T07:29:00;16.40;;;14.80;;
3101;SDS011;1561;42.666;23.392;2022-10-20T07:31:31;17.00;;;14.60;;
3101;SDS011;1561;42.666;23.392;2022-10-20T07:34:00;17.75;;;15.45;;
3101;SDS011;1561;42.666;23.392;2022-10-20T07:36:29;17.23;;;15.52;;
3101;SDS011;1561;42.666;23.392;2022-10-20T07:39:05;16.15;;;14.57;;
3101;SDS011;1561;42.666;23.392;2022-10-20T07:41:34;18.65;;;16.83;;
3101;SDS011;1561;42.666;23.392;2022-10-20T07:44:04;16.00;;;14.32;;
3101;SDS011;1561;42.666;23.392;2022-10-20T07:46:32;17.73;;;15.82;;
3101;SDS011;1561;42.666;23.392;2022-10-20T07:48:59;17.00;;;15.20;;
3101;SDS011;1561;42.666;23.392;2022-10-20T07:51:27;15.93;;;14.30;;
3101;SDS011;1561;42.666;23.392;2022-10-20T07:53:57;16.33;;;14.85;;
3101;SDS011;1561;42.666;23.392;2022-10-20T07:56:27;17.70;;;14.85;;
3101;SDS011;1561;42.666;23.392;2022-10-20T07:58:56;16.13;;;14.45;;
3101;SDS011;1561;42.666;23.392;2022-10-20T08:01:35;15.93;;;14.45;;
3101;SDS011;1561;42.666;23.392;2022-10-20T08:04:04;15.07;;;12.88;;
3101;SDS011;1561;42.666;23.392;2022-10-20T08:06:30;16.10;;;14.52;;
3101;SDS011;1561;42.666;23.392;2022-10-20T08:09:01;16.13;;;13.77;;
3101;SDS011;1561;42.666;23.392;2022-10-20T08:11:36;16.38;;;14.77;;
3101;SDS011;1561;42.666;23.392;2022-10-20T08:14:04;16.92;;;15.23;;
3101;SDS011;1561;42.666;23.392;2022-10-20T08:16:33;18.10;;;14.63;;
3101;SDS011;1561;42.666;23.392;2022-10-20T08:19:00;14.30;;;12.95;;
3101;SDS011;1561;42.666;23.392;2022-10-20T08:21:35;16.73;;;15.00;;
3101;SDS011;1561;42.666;23.392;2022-10-20T08:24:04;15.95;;;14.27;;
3101;SDS011;1561;42.666;23.392;2022-10-20T08:26:31;15.25;;;12.60;;
3101;SDS011;1561;42.666;23.392;2022-10-20T08:28:59;14.73;;;13.30;;
3101;SDS011;1561;42.666;23.392;2022-10-20T08:31:28;13.05;;;11.75;;
3101;SDS011;1561;42.666;23.392;2022-10-20T08:33:57;12.50;;;11.27;;
3101;SDS011;1561;42.666;23.392;2022-10-20T08:36:25;13.73;;;12.30;;
3101;SDS011;1561;42.666;23.392;2022-10-20T08:38:58;13.50;;;12.20;;
3101;SDS011;1561;42.666;23.392;2022-10-20T08:41:26;13.60;;;12.30;;
3101;SDS011;1561;42.666;23.392;2022-10-20T08:43:58;13.52;;;10.65;;
3101;SDS011;1561;42.666;23.392;2022-10-20T08:46:31;13.00;;;11.30;;
3101;SDS011;1561;42.666;23.392;2022-10-20T08:49:00;11.60;;;10.57;;
3101;SDS011;1561;42.666;23.392;2022-10-20T08:51:29;13.10;;;11.80;;
3101;SDS011;1561;42.666;23.392;2022-10-20T08:53:58;12.25;;;11.15;;
3101;SDS011;1561;42.666;23.392;2022-10-20T08:56:29;12.63;;;10.57;;
3101;SDS011;1561;42.666;23.392;2022-10-20T08:59:02;12.05;;;10.02;;
3101;SDS011;1561;42.666;23.392;2022-10-20T09:01:35;11.40;;;10.30;;
3101;SDS011;1561;42.666;23.392;2022-10-20T09:04:09;13.43;;;10.13;;
3101;SDS011;1561;42.666;23.392;2022-10-20T09:06:47;13.35;;;12.05;;
3101;SDS011;1561;42.666;23.392;2022-10-20T09:09:21;10.30;;;9.38;;
3101;SDS011;1561;42.666;23.392;2022-10-20T09:11:50;16.55;;;11.45;;
3101;SDS011;1561;42.666;23.392;2022-10-20T09:14:21;11.88;;;9.85;;
3101;SDS011;1561;42.666;23.392;2022-10-20T09:16:49;8.93;;;8.18;;
3101;SDS011;1561;42.666;23.392;2022-10-20T09:19:17;9.27;;;8.48;;
3101;SDS011;1561;42.666;23.392;2022-10-20T09:21:46;9.50;;;8.70;;
3101;SDS011;1561;42.666;23.392;2022-10-20T09:24:16;9.27;;;8.38;;
3101;SDS011;1561;42.666;23.392;2022-10-20T09:26:46;9.65;;;8.70;;
3101;SDS011;1561;42.666;23.392;2022-10-20T09:29:15;10.55;;;7.55;;
3101;SDS011;1561;42.666;23.392;2022-10-20T09:31:43;9.20;;;8.25;;
3101;SDS011;1561;42.666;23.392;2022-10-20T09:34:19;10.57;;;7.30;;
3101;SDS011;1561;42.666;23.392;2022-10-20T09:36:48;7.85;;;7.07;;
3101;SDS011;1561;42.666;23.392;2022-10-20T09:39:19;8.38;;;7.60;;
3101;SDS011;1561;42.666;23.392;2022-10-20T09:41:48;7.32;;;6.60;;
3101;SDS011;1561;42.666;23.392;2022-10-20T09:44:21;7.97;;;6.53;;
3101;SDS011;1561;42.666;23.392;2022-10-20T09:46:50;7.18;;;6.43;;
3101;SDS011;1561;42.666;23.392;2022-10-20T09:49:23;7.28;;;6.57;;
3101;SDS011;1561;42.666;23.392;2022-10-20T09:51:54;8.07;;;7.38;;
3101;SDS011;1561;42.666;23.392;2022-10-20T09:54:23;6.82;;;6.22;;
3101;SDS011;1561;42.666;23.392;2022-10-20T09:56:51;6.30;;;5.80;;
3101;SDS011;1561;42.666;23.392;2022-10-20T09:59:20;7.32;;;6.80;;
3101;SDS011;1561;42.666;23.392;2022-10-20T10:01:54;7.35;;;6.65;;
3101;SDS011;1561;42.666;23.392;2022-10-20T10:04:36;8.68;;;7.78;;
3101;SDS011;1561;42.666;23.392;2022-10-20T10:07:27;8.00;;;7.30;;
3101;SDS011;1561;42.666;23.392;2022-10-20T10:09:56;7.82;;;6.30;;
3101;SDS011;1561;42.666;23.392;2022-10-20T10:12:26;8.27;;;7.18;;
3101;SDS011;1561;42.666;23.392;2022-10-20T10:15:00;9.52;;;8.57;;
3101;SDS011;1561;42.666;23.392;2022-10-20T10:17:40;11.68;;;9.98;;
3101;SDS011;1561;42.666;23.392;2022-10-20T10:20:23;14.35;;;10.55;;
3101;SDS011;1561;42.666;23.392;2022-10-20T10:23:17;7.30;;;6.47;;
3101;SDS011;1561;42.666;23.392;2022-10-20T10:25:48;7.03;;;6.43;;
3101;SDS011;1561;42.666;23.392;2022-10-20T10:28:26;6.15;;;5.70;;
3101;SDS011;1561;42.666;23.392;2022-10-20T10:31:04;6.07;;;5.38;;
3101;SDS011;1561;42.666;23.392;2022-10-20T10:33:43;10.05;;;9.10;;
3101;SDS011;1561;42.666;23.392;2022-10-20T10:36:13;6.75;;;6.13;;
3101;SDS011;1561;42.666;23.392;2022-10-20T10:38:51;8.57;;;7.78;;
3101;SDS011;1561;42.666;23.392;2022-10-20T10:41:26;26.63;;;18.42;;
3101;SDS011;1561;42.666;23.392;2022-10-20T10:44:06;6.97;;;6.38;;
3101;SDS011;1561;42.666;23.392;2022-10-20T10:46:42;9.07;;;6.07;;
3101;SDS011;1561;42.666;23.392;2022-10-20T10:49:18;8.48;;;7.00;;
3101;SDS011;1561;42.666;23.392;2022-10-20T10:52:02;7.30;;;6.70;;
3101;SDS011;1561;42.666;23.392;2022-10-20T10:54:43;7.03;;;5.43;;
3101;SDS011;1561;42.666;23.392;2022-10-20T10:57:25;5.80;;;5.30;;
3101;SDS011;1561;42.666;23.392;2022-10-20T10:59:59;8.05;;;5.90;;
3101;SDS011;1561;42.666;23.392;2022-10-20T11:02:38;6.03;;;5.53;;
3101;SDS011;1561;42.666;23.392;2022-10-20T11:08:35;6.90;;;5.60;;
3101;SDS011;1561;42.666;23.392;2022-10-20T11:11:17;5.95;;;5.50;;
3101;SDS011;1561;42.666;23.392;2022-10-20T11:14:06;6.57;;;5.97;;
3101;SDS011;1561;42.666;23.392;2022-10-20T11:16:42;5.20;;;4.80;;
3101;SDS011;1561;42.666;23.392;2022-10-20T11:19:28;6.13;;;5.53;;
3101;SDS011;1561;42.666;23.392;2022-10-20T11:22:38;6.10;;;5.60;;
3101;SDS011;1561;42.666;23.392;2022-10-20T11:28:12;6.97;;;6.30;;
3101;SDS011;1561;42.666;23.392;2022-10-20T11:30:55;5.93;;;5.28;;
3101;SDS011;1561;42.666;23.392;2022-10-20T11:33:25;6.60;;;6.10;;
3101;SDS011;1561;42.666;23.392;2022-10-20T11:35:59;7.88;;;6.15;;
3101;SDS011;1561;42.666;23.392;2022-10-20T11:38:31;6.80;;;6.30;;
3101;SDS011;1561;42.666;23.392;2022-10-20T11:41:16;7.53;;;6.93;;
3101;SDS011;1561;42.666;23.392;2022-10-20T11:43:53;6.68;;;5.93;;
3101;SDS011;1561;42.666;23.392;2022-10-20T11:46:27;6.63;;;5.93;;
3101;SDS011;1561;42.666;23.392;2022-10-20T11:48:59;6.05;;;5.55;;
3101;SDS011;1561;42.666;23.392;2022-10-20T11:57:37;6.65;;;5.97;;
3101;SDS011;1561;42.666;23.392;2022-10-20T12:00:19;6.18;;;5.68;;
3101;SDS011;1561;42.666;23.392;2022-10-20T12:03:04;6.68;;;6.18;;
3101;SDS011;1561;42.666;23.392;2022-10-20T12:09:12;8.20;;;6.05;;
3101;SDS011;1561;42.666;23.392;2022-10-20T12:11:48;5.22;;;4.93;;
3101;SDS011;1561;42.666;23.392;2022-10-20T12:14:24;5.82;;;5.43;;
3101;SDS011;1561;42.666;23.392;2022-10-20T12:17:04;6.32;;;5.72;;
3101;SDS011;1561;42.666;23.392;2022-10-20T12:19:51;6.32;;;5.82;;
3101;SDS011;1561;42.666;23.392;2022-10-20T12:22:59;7.20;;;6.32;;
3101;SDS011;1561;42.666;23.392;2022-10-20T12:25:35;8.32;;;6.03;;
3101;SDS011;1561;42.666;23.392;2022-10-20T12:31:03;6.35;;;5.75;;
3101;SDS011;1561;42.666;23.392;2022-10-20T12:36:31;7.45;;;6.78;;
3101;SDS011;1561;42.666;23.392;2022-10-20T12:39:12;9.32;;;6.90;;
3101;SDS011;1561;42.666;23.392;2022-10-20T12:41:42;6.57;;;6.03;;
3101;SDS011;1561;42.666;23.392;2022-10-20T12:44:20;6.78;;;6.20;;
3101;SDS011;1561;42.666;23.392;2022-10-20T12:46:52;7.50;;;6.72;;
3101;SDS011;1561;42.666;23.392;2022-10-20T12:49:22;7.43;;;6.72;;
3101;SDS011;1561;42.666;23.392;2022-10-20T12:51:54;7.15;;;6.28;;
3101;SDS011;1561;42.666;23.392;2022-10-20T12:54:23;6.40;;;5.80;;
3101;SDS011;1561;42.666;23.392;2022-10-20T12:56:56;9.00;;;7.00;;
3101;SDS011;1561;42.666;23.392;2022-10-20T12:59:37;6.22;;;5.70;;
3101;SDS011;1561;42.666;23.392;2022-10-20T13:05:26;7.53;;;6.40;;
3101;SDS011;1561;42.666;23.392;2022-10-20T13:14:07;8.40;;;6.03;;
3101;SDS011;1561;42.666;23.392;2022-10-20T13:16:57;7.28;;;6.28;;
3101;SDS011;1561;42.666;23.392;2022-10-20T13:19:32;7.40;;;5.28;;
3101;SDS011;1561;42.666;23.392;2022-10-20T13:22:26;7.20;;;6.10;;
3101;SDS011;1561;42.666;23.392;2022-10-20T13:25:25;6.53;;;5.70;;
3101;SDS011;1561;42.666;23.392;2022-10-20T13:28:03;6.70;;;6.07;;
3101;SDS011;1561;42.666;23.392;2022-10-20T13:30:32;6.30;;;5.80;;
3101;SDS011;1561;42.666;23.392;2022-10-20T13:33:04;6.70;;;6.00;;
3101;SDS011;1561;42.666;23.392;2022-10-20T13:35:40;7.18;;;6.57;;
3101;SDS011;1561;42.666;23.392;2022-10-20T13:38:16;6.05;;;5.32;;
3101;SDS011;1561;42.666;23.392;2022-10-20T13:40:58;6.35;;;5.60;;
3101;SDS011;1561;42.666;23.392;2022-10-20T13:43:33;7.00;;;6.40;;
3101;SDS011;1561;42.666;23.392;2022-10-20T13:46:15;5.80;;;5.35;;
3101;SDS011;1561;42.666;23.392;2022-10-20T13:48:55;6.32;;;5.70;;
3101;SDS011;1561;42.666;23.392;2022-10-20T13:51:36;6.90;;;6.30;;
3101;SDS011;1561;42.666;23.392;2022-10-20T13:54:15;6.03;;;5.53;;
3101;SDS011;1561;42.666;23.392;2022-10-20T13:57:12;6.22;;;5.65;;
3101;SDS011;1561;42.666;23.392;2022-10-20T13:59:55;9.93;;;6.85;;
3101;SDS011;1561;42.666;23.392;2022-10-20T14:02:24;6.60;;;5.95;;
3101;SDS011;1561;42.666;23.392;2022-10-20T14:05:01;6.47;;;5.78;;
3101;SDS011;1561;42.666;23.392;2022-10-20T14:07:41;6.03;;;5.30;;
3101;SDS011;1561;42.666;23.392;2022-10-20T14:10:19;6.68;;;6.07;;
3101;SDS011;1561;42.666;23.392;2022-10-20T14:13:08;6.50;;;5.97;;
3101;SDS011;1561;42.666;23.392;2022-10-20T14:15:53;6.13;;;5.43;;
3101;SDS011;1561;42.666;23.392;2022-10-20T14:18:24;6.20;;;5.70;;
3101;SDS011;1561;42.666;23.392;2022-10-20T14:21:00;11.67;;;5.50;;
3101;SDS011;1561;42.666;23.392;2022-10-20T14:23:32;5.78;;;5.13;;
3101;SDS011;1561;42.666;23.392;2022-10-20T14:26:22;6.20;;;5.18;;
3101;SDS011;1561;42.666;23.392;2022-10-20T14:29:20;10.30;;;5.80;;
3101;SDS011;1561;42.666;23.392;2022-10-20T14:32:26;5.00;;;4.60;;
3101;SDS011;1561;42.666;23.392;2022-10-20T14:34:56;5.60;;;5.10;;
3101;SDS011;1561;42.666;23.392;2022-10-20T14:37:27;10.20;;;5.20;;
3101;SDS011;1561;42.666;23.392;2022-10-20T14:39:59;6.03;;;5.47;;
3101;SDS011;1561;42.666;23.392;2022-10-20T14:42:28;6.43;;;5.83;;
3101;SDS011;1561;42.666;23.392;2022-10-20T14:45:01;7.70;;;5.82;;
3101;SDS011;1561;42.666;23.392;2022-10-20T14:47:31;7.87;;;5.70;;
3101;SDS011;1561;42.666;23.392;2022-10-20T14:50:06;7.23;;;6.60;;
3101;SDS011;1561;42.666;23.392;2022-10-20T14:52:47;4.93;;;4.53;;
3101;SDS011;1561;42.666;23.392;2022-10-20T14:58:34;5.37;;;4.97;;
3101;SDS011;1561;42.666;23.392;2022-10-20T15:01:22;7.20;;;5.67;;
3101;SDS011;1561;42.666;23.392;2022-10-20T15:04:12;5.83;;;5.33;;
3101;SDS011;1561;42.666;23.392;2022-10-20T15:06:41;5.50;;;5.03;;
3101;SDS011;1561;42.666;23.392;2022-10-20T15:09:22;6.13;;;5.53;;
3101;SDS011;1561;42.666;23.392;2022-10-20T15:12:06;7.27;;;4.97;;
3101;SDS011;1561;42.666;23.392;2022-10-20T15:14:42;11.03;;;6.20;;
3101;SDS011;1561;42.666;23.392;2022-10-20T15:17:30;5.93;;;5.33;;
3101;SDS011;1561;42.666;23.392;2022-10-20T15:22:57;7.73;;;5.97;;
3101;SDS011;1561;42.666;23.392;2022-10-20T15:25:30;6.30;;;5.70;;
3101;SDS011;1561;42.666;23.392;2022-10-20T15:28:02;6.43;;;5.40;;
3101;SDS011;1561;42.666;23.392;2022-10-20T15:30:39;9.20;;;6.20;;
3101;SDS011;1561;42.666;23.392;2022-10-20T15:33:07;6.90;;;5.50;;
3101;SDS011;1561;42.666;23.392;2022-10-20T15:35:37;6.97;;;6.30;;
3101;SDS011;1561;42.666;23.392;2022-10-20T15:38:12;8.83;;;6.53;;
3101;SDS011;1561;42.666;23.392;2022-10-20T15:40:40;6.93;;;5.50;;
3101;SDS011;1561;42.666;23.392;2022-10-20T15:43:10;9.20;;;6.43;;
3101;SDS011;1561;42.666;23.392;2022-10-20T15:45:54;6.87;;;5.50;;
3101;SDS011;1561;42.666;23.392;2022-10-20T15:48:23;6.53;;;5.83;;
3101;SDS011;1561;42.666;23.392;2022-10-20T15:50:54;6.40;;;5.80;;
3101;SDS011;1561;42.666;23.392;2022-10-20T15:53:23;7.70;;;5.70;;
3101;SDS011;1561;42.666;23.392;2022-10-20T15:55:52;10.30;;;6.47;;
3101;SDS011;1561;42.666;23.392;2022-10-20T15:58:23;6.57;;;5.80;;
3101;SDS011;1561;42.666;23.392;2022-10-20T16:00:52;7.47;;;6.47;;
3101;SDS011;1561;42.666;23.392;2022-10-20T16:03:26;7.83;;;5.73;;